Time;durP1;ratioP1;P1;durP2;ratioP2;P2;SDS_P1;SDS_P2;PMS_P1;PMS_P2;Temp;Humidity;BMP_temperature;BMP_pressure;BME280_temperature;BME280_humidity;BME280_pressure;Samples;Min_cycle;Max_cycle;Signal;HPM_P1;HPM_P2
2022/08/13 00:01:36;;;;;;;1.70;1.50;;;;;;;20.49;43.93;98763.09;6949362;28;20258;-78
2022/08/13 00:04:59;;;;;;;2.00;1.90;;;;;;;20.99;42.99;98751.44;6952446;28;20227;-78
2022/08/13 00:08:24;;;;;;;1.73;1.60;;;;;;;21.45;42.09;98756.66;6948743;28;20207;-78
2022/08/13 00:15:28;;;;;;;2.10;2.00;;;;;;;21.18;42.65;98756.94;6947757;28;20219;-79
2022/08/13 00:18:50;;;;;;;2.00;1.80;;;;;;;21.36;42.42;98772.03;6947736;28;20228;-78
2022/08/13 00:22:19;;;;;;;2.50;1.80;;;;;;;21.42;42.02;98749.78;6947992;28;20227;-78
2022/08/13 00:25:41;;;;;;;2.17;1.60;;;;;;;21.44;42.02;98766.81;6947798;28;20187;-78
2022/08/13 00:29:04;;;;;;;1.90;1.80;;;;;;;21.27;42.40;98767.38;6947076;28;20245;-78
2022/08/13 00:32:29;;;;;;;2.00;1.73;;;;;;;21.30;42.24;98754.72;6947675;28;20680;-78
2022/08/13 00:35:52;;;;;;;2.70;2.23;;;;;;;21.38;42.18;98750.63;6947362;28;20243;-78
2022/08/13 00:39:14;;;;;;;2.40;1.87;;;;;;;;;;6945664;28;20318;-78
2022/08/13 00:42:36;;;;;;;2.30;2.10;;;;;;;20.44;44.53;98743.91;6947378;28;20301;-78
2022/08/13 00:45:59;;;;;;;1.83;1.70;;;;;;;20.23;44.24;98703.84;6947320;28;20240;-78
2022/08/13 00:49:20;;;;;;;2.13;2.03;;;;;;;20.32;44.85;98739.75;6940551;28;20246;-78
2022/08/13 00:52:41;;;;;;;3.27;2.00;;;;;;;19.86;45.92;98737.91;6919870;28;20245;-78
2022/08/13 00:56:04;;;;;;;2.27;2.10;;;;;;;19.25;47.69;98733.13;6919439;28;20236;-78
2022/08/13 00:59:25;;;;;;;2.20;2.00;;;;;;;19.65;46.66;98736.97;6919352;28;20263;-78
2022/08/13 01:02:49;;;;;;;2.20;2.00;;;;;;;20.29;45.35;98735.63;6919957;28;20256;-78
2022/08/13 01:06:11;;;;;;;1.93;1.83;;;;;;;20.42;44.58;98729.69;6919732;28;20204;-78
2022/08/13 01:09:34;;;;;;;2.20;2.00;;;;;;;20.52;44.44;98728.88;6918445;28;20219;-78
2022/08/13 01:12:56;;;;;;;4.23;2.50;;;;;;;20.29;44.97;98723.88;6922784;28;20224;-78
2022/08/13 01:16:18;;;;;;;2.43;2.23;;;;;;;19.95;45.89;98737.13;6919363;28;20242;-78
2022/08/13 01:19:43;;;;;;;4.07;2.37;;;;;;;20.06;45.64;98738.88;6918699;28;20225;-78
2022/08/13 01:23:08;;;;;;;2.67;2.03;;;;;;;20.31;44.77;98738.94;6919217;28;20248;-78
2022/08/13 01:26:32;;;;;;;2.40;2.20;;;;;;;19.16;48.13;98740.97;6919080;28;20203;-78
2022/08/13 01:29:56;;;;;;;2.30;2.10;;;;;;;19.77;46.44;98737.59;6918610;28;20204;-78
2022/08/13 01:33:18;;;;;;;2.27;2.10;;;;;;;19.15;48.31;98730.28;6944049;28;20229;-78
2022/08/13 01:36:39;;;;;;;2.80;2.10;;;;;;;19.52;47.47;98728.41;6946242;28;20660;-78
2022/08/13 01:40:04;;;;;;;2.30;2.20;;;;;;;20.01;45.92;98727.84;6945672;28;20266;-78
2022/08/13 01:43:30;;;;;;;2.20;2.00;;;;;;;20.13;45.48;98727.66;6947919;28;20700;-78
2022/08/13 01:50:31;;;;;;;2.43;2.23;;;;;;;18.59;50.02;98717.22;6947947;28;20684;-78
2022/08/13 01:53:58;;;;;;;2.97;2.50;;;;;;;18.02;51.43;98705.94;6952193;28;20281;-78
2022/08/13 01:57:21;;;;;;;3.03;2.30;;;;;;;18.40;51.10;98721.41;6951756;28;20183;-78
2022/08/13 02:00:44;;;;;;;2.40;2.20;;;;;;;18.88;49.43;98721.34;6951194;28;20315;-78
2022/08/13 02:04:06;;;;;;;2.37;2.17;;;;;;;19.34;48.12;98709.69;6951669;28;20231;-78
2022/08/13 02:07:28;;;;;;;2.53;2.33;;;;;;;19.09;48.78;98723.13;6950879;28;20203;-78
2022/08/13 02:10:52;;;;;;;2.43;2.00;;;;;;;19.09;48.88;98714.94;6951385;28;20290;-78
2022/08/13 02:14:16;;;;;;;2.70;2.30;;;;;;;19.66;46.92;98719.47;6950851;28;20259;-78
2022/08/13 02:17:41;;;;;;;2.10;2.00;;;;;;;19.79;46.63;98708.03;6950588;28;20207;-78
2022/08/13 02:21:04;;;;;;;2.50;2.30;;;;;;;19.56;47.60;98710.38;6957863;28;20231;-78
2022/08/13 02:24:25;;;;;;;2.40;2.10;;;;;;;19.74;47.01;98718.16;6960283;28;20369;-78
2022/08/13 02:27:47;;;;;;;2.40;2.20;;;;;;;19.63;47.39;98736.41;6953097;28;20376;-78
2022/08/13 02:31:12;;;;;;;3.87;2.23;;;;;;;19.60;47.44;98726.00;6950627;28;20270;-78
2022/08/13 02:34:36;;;;;;;2.30;2.20;;;;;;;19.67;47.17;98731.22;6950690;28;20219;-78
2022/08/13 02:37:57;;;;;;;2.57;2.37;;;;;;;19.70;46.92;98717.03;6949597;28;20665;-78
2022/08/13 02:44:59;;;;;;;2.50;2.20;;;;;;;19.42;47.67;98695.53;6949669;28;20231;-78
2022/08/13 02:48:23;;;;;;;3.57;2.10;;;;;;;18.90;48.87;98727.34;6949298;28;20290;-78
2022/08/13 02:51:47;;;;;;;2.80;2.60;;;;;;;19.34;48.11;98715.97;6950285;28;20836;-78
2022/08/13 02:55:09;;;;;;;2.47;2.27;;;;;;;19.25;48.04;98703.06;6950086;28;20226;-78
2022/08/13 02:58:31;;;;;;;3.13;2.70;;;;;;;19.09;49.08;98726.69;6946425;28;20290;-78
2022/08/13 03:01:53;;;;;;;2.37;2.20;;;;;;;19.14;48.69;98685.75;6949499;28;20235;-78
2022/08/13 03:05:19;;;;;;;4.07;2.57;;;;;;;19.62;46.97;98712.03;6950057;28;20227;-78
2022/08/13 03:08:40;;;;;;;2.60;2.30;;;;;;;19.51;47.87;98729.50;6948628;28;20228;-78
2022/08/13 03:12:05;;;;;;;2.87;2.50;;;;;;;19.45;48.02;98720.44;6949699;28;20191;-78
2022/08/13 03:15:27;;;;;;;2.57;2.37;;;;;;;19.53;48.03;98719.13;6950009;28;20306;-78
2022/08/13 03:18:49;;;;;;;2.70;2.50;;;;;;;19.36;48.21;98729.38;6948859;28;20243;-78
2022/08/13 03:22:12;;;;;;;3.27;2.70;;;;;;;19.40;48.53;98727.78;6949871;28;20247;-78
2022/08/13 03:25:34;;;;;;;2.90;2.60;;;;;;;19.19;48.58;98721.31;6949384;28;20214;-78
2022/08/13 03:28:56;;;;;;;2.57;2.37;;;;;;;18.90;49.55;98725.44;6948845;28;20579;-78
2022/08/13 03:32:18;;;;;;;2.53;2.43;;;;;;;18.68;49.62;98683.72;6944058;28;20341;-78
2022/08/13 03:35:39;;;;;;;3.70;2.40;;;;;;;18.93;49.35;98710.44;6948224;28;20214;-78
2022/08/13 03:39:03;;;;;;;2.60;2.40;;;;;;;19.14;49.11;98714.97;6947989;28;20290;-78
2022/08/13 03:42:25;;;;;;;4.80;2.47;;;;;;;19.23;48.81;98727.13;6948251;28;20298;-78
2022/08/13 03:45:47;;;;;;;5.53;2.70;;;;;;;18.98;49.06;98688.63;6948155;28;20366;-78
2022/08/13 03:49:08;;;;;;;2.40;2.30;;;;;;;19.03;49.13;98732.38;6948862;28;20227;-78
2022/08/13 03:52:31;;;;;;;3.60;2.60;;;;;;;18.88;49.91;98749.47;6948731;28;20237;-78
2022/08/13 03:55:54;;;;;;;2.40;2.20;;;;;;;18.64;50.50;98731.75;6949696;28;20680;-78
2022/08/13 03:59:17;;;;;;;2.73;2.30;;;;;;;18.83;49.58;98719.38;6949898;28;20210;-78
2022/08/13 04:02:40;;;;;;;2.67;2.47;;;;;;;18.87;49.47;98725.97;6950022;28;20598;-78
2022/08/13 04:06:03;;;;;;;3.77;2.77;;;;;;;18.94;49.08;98720.28;6950950;28;20208;-78
2022/08/13 04:09:25;;;;;;;2.63;2.50;;;;;;;18.70;49.97;98713.53;6949493;28;20274;-78
2022/08/13 04:12:48;;;;;;;5.73;2.60;;;;;;;18.88;49.59;98713.94;6958319;28;20224;-78
2022/08/13 04:16:12;;;;;;;2.60;2.40;;;;;;;18.36;50.83;98687.50;6949962;28;20206;-78
2022/08/13 04:19:35;;;;;;;2.80;2.47;;;;;;;18.74;50.06;98722.84;6948409;28;20630;-78
2022/08/13 04:22:56;;;;;;;2.80;2.60;;;;;;;18.66;50.01;98709.66;6949801;28;20254;-77
2022/08/13 04:26:23;;;;;;;5.73;2.50;;;;;;;18.93;49.41;98726.84;6949267;28;20675;-81
2022/08/13 04:29:45;;;;;;;2.93;2.73;;;;;;;18.74;49.81;98715.47;6947753;28;20271;-79
2022/08/13 04:33:09;;;;;;;3.77;2.90;;;;;;;17.79;52.65;98722.56;6948154;28;20239;-77
2022/08/13 04:36:31;;;;;;;4.10;2.70;;;;;;;18.13;52.24;98710.44;6948739;28;20218;-77
2022/08/13 04:39:53;;;;;;;2.97;2.77;;;;;;;18.24;51.21;98727.75;6947345;28;20223;-78
2022/08/13 04:43:15;;;;;;;3.07;2.80;;;;;;;17.76;53.53;98716.78;6948458;28;20320;-77
2022/08/13 04:46:39;;;;;;;3.03;2.53;;;;;;;18.13;52.64;98739.63;6945622;28;20203;-77
2022/08/13 04:50:01;;;;;;;3.00;2.80;;;;;;;17.81;53.41;98731.31;6947415;28;20274;-77
2022/08/13 04:53:24;;;;;;;2.90;2.70;;;;;;;18.03;52.45;98736.75;6947023;28;20235;-77
2022/08/13 04:56:46;;;;;;;3.57;2.67;;;;;;;18.57;51.40;98735.78;6946362;28;20341;-77
2022/08/13 05:00:09;;;;;;;2.90;2.70;;;;;;;18.71;50.61;98731.56;6947635;28;20220;-77
2022/08/13 05:03:32;;;;;;;5.20;2.87;;;;;;;18.89;50.26;98734.75;6947214;28;20230;-77
2022/08/13 05:06:55;;;;;;;2.73;2.53;;;;;;;18.78;50.26;98743.09;6947332;28;20352;-77
2022/08/13 05:10:16;;;;;;;2.70;2.50;;;;;;;18.95;49.85;98746.53;6946824;28;20211;-76
2022/08/13 05:13:38;;;;;;;3.13;2.87;;;;;;;19.07;49.04;98745.28;6940866;28;20473;-77
2022/08/13 05:16:59;;;;;;;3.20;3.00;;;;;;;18.83;50.06;98752.16;6931814;28;20242;-77
2022/08/13 05:20:22;;;;;;;3.20;2.90;;;;;;;19.14;48.95;98748.59;6943023;28;20316;-76
2022/08/13 05:23:44;;;;;;;2.27;2.17;;;;;;;19.30;48.75;98741.38;6947085;28;20234;-77
2022/08/13 05:27:05;;;;;;;3.17;2.90;;;;;;;19.42;48.57;98747.47;6945282;28;20297;-76
2022/08/13 05:30:27;;;;;;;3.13;2.83;;;;;;;19.73;48.39;98761.09;6946868;28;20746;-77
2022/08/13 05:33:49;;;;;;;3.03;2.73;;;;;;;19.88;47.66;98733.78;6946732;28;20330;-76
2022/08/13 05:37:16;;;;;;;3.30;2.77;;;;;;;19.85;48.98;98749.94;6947024;28;20199;-77
2022/08/13 05:40:38;;;;;;;3.17;2.97;;;;;;;20.06;48.06;98754.41;6945994;28;20328;-76
2022/08/13 05:44:00;;;;;;;3.00;2.80;;;;;;;20.54;47.60;98743.13;6946469;28;20575;-77
2022/08/13 05:47:21;;;;;;;4.53;3.17;;;;;;;21.19;45.53;98744.06;6943949;28;20230;-77
2022/08/13 05:50:43;;;;;;;3.13;2.73;;;;;;;21.64;44.75;98733.84;6942079;28;20231;-77
2022/08/13 05:54:07;;;;;;;2.87;2.67;;;;;;;21.95;44.08;98735.44;6940409;28;20320;-77
2022/08/13 05:57:29;;;;;;;3.30;3.00;;;;;;;22.50;42.75;98729.75;6932076;28;20227;-77
2022/08/13 06:04:30;;;;;;;3.60;3.07;;;;;;;22.48;42.23;98734.69;6945819;28;20227;-77
2022/08/13 06:07:52;;;;;;;2.80;2.60;;;;;;;23.38;40.68;98744.25;6921577;28;20246;-77
2022/08/13 06:11:17;;;;;;;3.17;2.70;;;;;;;23.18;41.33;98739.72;6918456;28;20579;-77
2022/08/13 06:14:39;;;;;;;3.20;2.90;;;;;;;22.99;41.59;98729.66;6918565;28;20313;-77
2022/08/13 06:18:01;;;;;;;3.10;2.90;;;;;;;23.44;40.77;98735.66;6917743;28;20724;-77
2022/08/13 06:21:22;;;;;;;2.90;2.60;;;;;;;23.82;39.42;98736.63;6940910;28;20872;-76
2022/08/13 06:24:45;;;;;;;3.30;2.87;;;;;;;24.48;38.52;98732.81;6938188;28;20281;-77
2022/08/13 06:28:10;;;;;;;3.03;2.63;;;;;;;24.67;37.71;98733.66;6943968;28;20310;-77
2022/08/13 06:31:34;;;;;;;4.87;3.37;;;;;;;24.48;38.38;98738.31;6917949;28;20214;-77
2022/08/13 06:34:55;;;;;;;2.67;2.47;;;;;;;24.95;37.06;98743.75;6938883;28;20222;-77
2022/08/13 06:38:18;;;;;;;3.57;2.60;;;;;;;25.00;37.43;98738.16;6945929;28;20212;-77
2022/08/13 06:41:40;;;;;;;2.97;2.63;;;;;;;25.56;35.87;98727.84;6950280;28;20240;-77
2022/08/13 06:45:05;;;;;;;3.63;2.70;;;;;;;25.38;35.99;98714.94;6950789;28;20223;-77
2022/08/13 06:48:32;;;;;;;4.47;2.50;;;;;;;25.38;36.18;98744.47;6947798;28;20211;-78
2022/08/13 06:51:55;;;;;;;3.30;2.83;;;;;;;25.79;35.57;98728.81;6949430;28;20228;-78
2022/08/13 06:55:17;;;;;;;3.03;2.73;;;;;;;25.94;35.40;98743.16;6952272;28;20330;-79
2022/08/13 06:58:39;;;;;;;4.50;2.50;;;;;;;25.70;35.85;98736.13;6958212;28;20205;-78
2022/08/13 07:02:03;;;;;;;3.83;2.60;;;;;;;26.07;34.98;98742.34;6950437;28;20276;-78
2022/08/13 07:05:33;;;;;;;4.17;2.20;;;;;;;26.16;34.78;98731.41;6949277;28;20302;-77
2022/08/13 07:08:57;;;;;;;4.37;2.70;;;;;;;26.28;34.78;98735.31;6947897;28;20210;-78
2022/08/13 07:12:19;;;;;;;2.40;2.20;;;;;;;26.92;34.28;98739.72;6948816;28;20348;-78
2022/08/13 07:15:44;;;;;;;2.90;2.30;;;;;;;27.01;33.52;98721.25;6948630;28;20296;-77
2022/08/13 07:19:08;;;;;;;4.20;2.20;;;;;;;27.06;33.77;98733.00;6948640;28;20265;-78
2022/08/13 07:22:29;;;;;;;2.50;2.30;;;;;;;27.58;32.87;98739.75;6948719;28;20370;-78
2022/08/13 07:25:52;;;;;;;2.43;1.90;;;;;;;27.52;33.01;98744.63;6949242;28;20221;-76
2022/08/13 07:29:14;;;;;;;2.60;2.40;;;;;;;28.32;31.63;98744.38;6948436;28;20293;-77
2022/08/13 07:32:37;;;;;;;2.60;2.40;;;;;;;27.65;32.21;98738.16;6944733;28;20232;-77
2022/08/13 07:36:04;;;;;;;3.40;2.30;;;;;;;27.98;31.59;98735.94;6939745;28;20213;-77
2022/08/13 07:39:26;;;;;;;4.60;2.07;;;;;;;28.05;31.61;98723.25;6948365;28;20223;-77
2022/08/13 07:42:49;;;;;;;3.00;2.20;;;;;;;28.66;30.77;98739.75;6949173;28;20242;-77
2022/08/13 07:46:12;;;;;;;4.20;2.40;;;;;;;28.82;30.83;98729.00;6949052;28;20303;-77
2022/08/13 07:49:35;;;;;;;2.57;2.30;;;;;;;29.16;30.02;98729.88;6946403;28;20212;-78
2022/08/13 07:52:58;;;;;;;2.37;2.10;;;;;;;30.04;28.76;98731.00;6949245;28;20263;-77
2022/08/13 07:56:20;;;;;;;2.87;2.03;;;;;;;28.59;30.46;98733.03;6948769;28;20291;-77
2022/08/13 07:59:42;;;;;;;3.67;2.13;;;;;;;28.92;29.79;98720.38;6949123;28;20310;-78
2022/08/13 08:03:04;;;;;;;2.50;2.03;;;;;;;29.55;29.40;98734.44;6949842;28;20264;-78
2022/08/13 08:06:26;;;;;;;3.23;2.20;;;;;;;29.11;29.93;98740.31;6949086;28;20675;-78
2022/08/13 08:09:50;;;;;;;3.90;2.00;;;;;;;28.98;29.83;98721.88;6950077;28;20197;-78
2022/08/13 08:13:13;;;;;;;4.53;2.37;;;;;;;29.09;29.58;98726.78;6958399;28;20309;-80
2022/08/13 08:16:36;;;;;;;2.33;2.13;;;;;;;28.64;31.30;98727.34;6949186;28;20253;-79
2022/08/13 08:19:57;;;;;;;2.20;2.00;;;;;;;30.33;28.37;98720.78;6944071;28;20221;-79
2022/08/13 08:23:23;;;;;;;2.53;2.00;;;;;;;29.16;29.37;98727.09;6950220;28;20228;-79
2022/08/13 08:26:47;;;;;;;2.20;2.00;;;;;;;28.79;29.50;98719.38;6948095;28;20639;-79
2022/08/13 08:30:10;;;;;;;2.10;2.00;;;;;;;28.46;30.90;98734.84;6949324;28;20646;-79
2022/08/13 08:33:31;;;;;;;2.27;2.07;;;;;;;29.24;29.07;98719.91;6949887;28;20266;-79
2022/08/13 08:36:55;;;;;;;2.27;2.07;;;;;;;27.55;31.65;98729.31;6948100;28;20233;-79
2022/08/13 08:43:58;;;;;;;2.30;2.10;;;;;;;27.26;32.59;98735.28;6950247;28;20224;-79
2022/08/13 08:47:19;;;;;;;2.77;2.33;;;;;;;28.45;31.05;98726.81;6949782;28;20197;-79
2022/08/13 08:50:42;;;;;;;2.20;2.10;;;;;;;28.93;29.83;98727.53;6950173;28;20220;-78
2022/08/13 08:54:04;;;;;;;2.10;2.00;;;;;;;28.41;30.42;98701.69;6950313;28;20265;-80
2022/08/13 08:57:26;;;;;;;3.60;2.30;;;;;;;28.58;30.12;98712.81;6949934;28;20213;-80
2022/08/13 09:00:49;;;;;;;2.30;2.03;;;;;;;28.92;29.49;98717.59;6949809;28;20243;-80
2022/08/13 09:04:11;;;;;;;2.10;2.00;;;;;;;27.92;31.51;98712.25;6951977;28;20257;-80
2022/08/13 09:07:36;;;;;;;2.87;2.17;;;;;;;28.65;30.11;98715.09;6949970;28;20729;-79
2022/08/13 09:10:59;;;;;;;1.90;1.80;;;;;;;28.96;29.84;98727.75;6950863;28;20211;-80
2022/08/13 09:14:25;;;;;;;2.17;2.07;;;;;;;29.73;28.73;98719.34;6951787;28;20670;-80
2022/08/13 09:17:49;;;;;;;2.37;2.10;;;;;;;30.08;27.49;98715.31;6948958;28;20677;-79
2022/08/13 09:21:10;;;;;;;4.73;1.90;;;;;;;30.33;27.56;98692.13;6933633;28;20273;-80
2022/08/13 09:24:37;;;;;;;2.10;2.00;;;;;;;30.55;27.04;98706.53;6934436;28;20313;-78
2022/08/13 09:27:58;;;;;;;1.70;1.57;;;;;;;29.82;27.46;98703.44;6919669;28;20550;-78
2022/08/13 09:31:20;;;;;;;2.03;1.93;;;;;;;30.69;27.11;98695.19;6920228;28;20245;-79
2022/08/13 09:34:44;;;;;;;3.00;2.30;;;;;;;31.16;26.25;98685.47;6920835;28;20266;-78
2022/08/13 09:38:06;;;;;;;3.57;2.00;;;;;;;32.30;23.84;98690.00;6918746;28;20739;-78
2022/08/13 09:41:33;;;;;;;2.07;1.80;;;;;;;31.62;24.81;98699.13;6924626;28;20215;-78
2022/08/13 09:44:58;;;;;;;2.43;2.20;;;;;;;30.67;26.47;98695.53;6939904;28;20262;-78
2022/08/13 09:48:20;;;;;;;2.50;2.30;;;;;;;31.24;25.62;98691.00;6946762;28;20569;-78
2022/08/13 09:51:43;;;;;;;3.03;2.03;;;;;;;30.74;26.35;98704.19;6947235;28;20218;-78
2022/08/13 09:55:05;;;;;;;3.77;2.00;;;;;;;29.73;27.27;98664.56;6946974;28;20731;-78
2022/08/13 09:58:27;;;;;;;9.07;2.17;;;;;;;30.28;26.31;98675.63;6946840;28;20922;-78
2022/08/13 10:01:49;;;;;;;2.77;1.90;;;;;;;31.18;25.95;98681.22;6947175;28;20317;-78
2022/08/13 10:05:12;;;;;;;1.93;1.80;;;;;;;31.11;25.89;98685.66;6946891;28;20299;-78
2022/08/13 10:08:35;;;;;;;3.50;1.80;;;;;;;32.39;24.26;98683.13;6946493;28;20690;-78
2022/08/13 10:11:58;;;;;;;3.10;1.97;;;;;;;31.58;23.69;98684.25;6949585;28;20216;-78
2022/08/13 10:15:20;;;;;;;2.40;2.20;;;;;;;30.48;25.16;98670.09;6951965;28;20236;-78
2022/08/13 10:18:43;;;;;;;3.67;2.07;;;;;;;30.82;25.25;98669.88;6952420;28;20261;-78
2022/08/13 10:22:05;;;;;;;3.50;2.00;;;;;;;31.45;24.81;98675.03;6952237;28;20320;-79
2022/08/13 10:25:29;;;;;;;1.90;1.80;;;;;;;32.26;23.62;98661.94;6952054;28;20230;-80
2022/08/13 10:28:51;;;;;;;2.23;1.93;;;;;;;31.91;23.43;98663.53;6952934;28;20663;-79
2022/08/13 10:32:12;;;;;;;3.03;1.93;;;;;;;33.48;21.58;98641.72;6951910;28;20606;-78
2022/08/13 10:35:34;;;;;;;2.30;1.90;;;;;;;32.20;22.29;98646.56;6951808;28;20239;-80
2022/08/13 10:38:55;;;;;;;3.03;2.00;;;;;;;32.62;22.15;98649.91;6950829;28;20218;-78
2022/08/13 10:42:18;;;;;;;3.07;1.87;;;;;;;32.94;21.54;98635.78;6950996;28;20839;-80
2022/08/13 10:45:42;;;;;;;2.27;1.40;;;;;;;33.33;20.39;98640.53;6947608;28;20258;-81
2022/08/13 10:49:04;;;;;;;1.70;1.60;;;;;;;33.99;19.89;98609.91;6934698;28;20238;-78
2022/08/13 10:52:26;;;;;;;2.97;2.17;;;;;;;33.13;20.37;98635.13;6936848;28;20219;-81
2022/08/13 10:55:48;;;;;;;3.30;1.80;;;;;;;32.74;20.90;98620.00;6952729;28;20202;-78
2022/08/13 10:59:11;;;;;;;4.97;3.07;;;;;;;31.77;22.52;98626.81;6951493;28;20228;-78
2022/08/13 11:02:32;;;;;;;1.93;1.70;;;;;;;32.91;21.43;98621.69;6951461;28;20225;-78
2022/08/13 11:05:54;;;;;;;2.93;1.83;;;;;;;34.04;19.74;98607.66;6951192;28;20203;-79
2022/08/13 11:09:18;;;;;;;2.20;2.03;;;;;;;31.91;22.27;98640.41;6951791;28;20210;-79
2022/08/13 11:12:47;;;;;;;1.90;1.73;;;;;;;31.06;23.29;98627.38;6952412;28;20721;-78
2022/08/13 11:16:56;;;;;;;3.27;2.20;;;;;;;33.37;21.11;98621.06;6951868;28;20206;-78
2022/08/13 11:19:54;;;;;;;2.33;1.77;;;;;;;34.59;19.42;98606.53;6951333;28;20217;-78
2022/08/13 11:23:16;;;;;;;1.97;1.87;;;;;;;33.92;19.83;98613.34;6951026;28;20242;-78
2022/08/13 11:26:37;;;;;;;3.27;1.80;;;;;;;33.75;19.93;98622.06;6951182;28;20207;-79
2022/08/13 11:29:59;;;;;;;2.10;1.80;;;;;;;32.52;21.37;98620.50;6951354;28;20211;-78
2022/08/13 11:33:24;;;;;;;2.27;1.97;;;;;;;32.94;20.90;98598.63;6950903;28;20738;-78
2022/08/13 11:36:45;;;;;;;2.30;1.60;;;;;;;33.84;19.96;98621.94;6959293;28;20199;-78
2022/08/13 11:40:08;;;;;;;4.43;1.80;;;;;;;32.09;21.53;98600.78;6959853;28;20258;-78
2022/08/13 11:43:31;;;;;;;2.30;1.70;;;;;;;33.27;20.39;98582.44;6952417;28;20281;-81
2022/08/13 11:46:53;;;;;;;3.90;1.83;;;;;;;33.54;19.93;98565.59;6949927;28;20207;-77
2022/08/13 11:50:16;;;;;;;2.47;1.77;;;;;;;34.18;19.01;98587.56;6948105;28;20692;-78
2022/08/13 11:53:37;;;;;;;1.87;1.70;;;;;;;34.76;19.28;98580.94;6949475;28;20263;-78
2022/08/13 11:56:59;;;;;;;1.93;1.70;;;;;;;33.54;19.51;98590.75;6948516;28;20237;-78
2022/08/13 12:00:20;;;;;;;3.00;1.87;;;;;;;33.33;20.07;98578.19;6956817;28;20207;-78
2022/08/13 12:03:43;;;;;;;1.77;1.67;;;;;;;34.43;19.32;98583.41;6947381;28;20231;-78
2022/08/13 12:07:06;;;;;;;1.90;1.80;;;;;;;33.88;19.35;98581.66;6947693;28;20330;-78
2022/08/13 12:10:29;;;;;;;1.80;1.70;;;;;;;32.72;20.60;98597.16;6947485;28;20365;-78
2022/08/13 12:13:50;;;;;;;1.30;1.30;;;;;;;32.99;20.17;98571.25;6947792;28;20591;-78
2022/08/13 12:17:12;;;;;;;1.93;1.73;;;;;;;33.77;19.23;98575.00;6947578;28;20288;-78
2022/08/13 12:20:33;;;;;;;2.47;1.90;;;;;;;33.54;19.15;98565.59;6946827;28;20566;-78
2022/08/13 12:23:57;;;;;;;2.90;1.90;;;;;;;34.00;19.58;98566.75;6947496;28;20235;-78
2022/08/13 12:27:18;;;;;;;3.73;1.90;;;;;;;35.05;18.01;98569.94;6946741;28;20219;-78
2022/08/13 12:30:40;;;;;;;1.80;1.60;;;;;;;33.94;18.64;98585.00;6946564;28;20280;-78
2022/08/13 12:34:01;;;;;;;2.50;1.80;;;;;;;32.33;20.00;98584.03;6946065;28;20266;-78
2022/08/13 12:37:23;;;;;;;1.70;1.60;;;;;;;34.01;18.84;98565.59;6945959;28;20293;-79
2022/08/13 12:40:47;;;;;;;2.77;1.83;;;;;;;34.41;17.95;98571.72;6947414;28;20207;-79
2022/08/13 12:44:09;;;;;;;1.93;1.63;;;;;;;33.47;18.29;98526.25;6947310;28;20255;-78
2022/08/13 12:47:30;;;;;;;4.70;1.97;;;;;;;33.00;18.68;98570.09;6940153;28;20196;-79
2022/08/13 12:50:52;;;;;;;2.13;1.80;;;;;;;33.18;18.72;98571.38;6926052;28;20681;-78
2022/08/13 12:54:14;;;;;;;2.93;1.63;;;;;;;33.90;18.18;98568.13;6945804;28;20230;-79
2022/08/13 12:57:37;;;;;;;1.60;1.50;;;;;;;34.56;16.77;98549.28;6953324;28;20265;-78
2022/08/13 13:01:00;;;;;;;2.23;1.80;;;;;;;33.82;17.67;98557.13;6946983;28;20674;-79
2022/08/13 13:04:22;;;;;;;2.90;1.73;;;;;;;33.18;18.49;98531.44;6946810;28;20235;-78
2022/08/13 13:07:44;;;;;;;1.90;1.70;;;;;;;32.40;19.82;98558.31;6945263;28;20235;-79
2022/08/13 13:11:08;;;;;;;3.10;1.73;;;;;;;33.99;18.49;98539.94;6944799;28;20278;-79
2022/08/13 13:14:31;;;;;;;5.20;1.67;;;;;;;34.06;18.46;98498.94;6946565;28;20247;-80
2022/08/13 13:17:52;;;;;;;3.47;1.50;;;;;;;34.89;17.49;98548.78;6944801;28;20211;-78
2022/08/13 13:21:14;;;;;;;2.30;1.40;;;;;;;33.06;18.63;98551.06;6944617;28;20691;-79
2022/08/13 13:24:35;;;;;;;2.80;1.60;;;;;;;34.11;17.93;98503.44;6946822;28;20292;-79
2022/08/13 13:27:57;;;;;;;2.83;1.50;;;;;;;35.01;17.47;98534.63;6945870;28;20207;-79
2022/08/13 13:31:20;;;;;;;1.57;1.47;;;;;;;35.54;17.02;98530.81;6947297;28;20257;-79
2022/08/13 13:34:43;;;;;;;1.60;1.50;;;;;;;33.50;17.45;98539.50;6946433;28;20313;-79
2022/08/13 13:38:06;;;;;;;1.87;1.57;;;;;;;33.99;17.98;98540.75;6945429;28;20218;-79
2022/08/13 13:41:28;;;;;;;3.53;1.93;;;;;;;34.64;16.91;98523.03;6946452;28;20243;-79
2022/08/13 13:44:49;;;;;;;1.70;1.60;;;;;;;33.09;18.45;98528.84;6945235;28;20234;-80
2022/08/13 13:48:20;;;;;;;1.50;1.40;;;;;;;34.56;16.98;98509.25;6924497;28;20204;-79
2022/08/13 13:51:42;;;;;;;2.80;1.50;;;;;;;34.82;16.33;98517.81;6903329;28;1121271;-80
2022/08/13 13:55:04;;;;;;;1.60;1.50;;;;;;;33.75;17.75;98518.56;6921718;28;20262;-80
2022/08/13 13:58:26;;;;;;;5.03;1.70;;;;;;;34.34;17.46;98512.78;6922237;28;20223;-81
2022/08/13 14:01:48;;;;;;;2.30;1.50;;;;;;;34.13;17.08;98503.91;6925097;28;20608;-80
2022/08/13 14:05:11;;;;;;;1.43;1.37;;;;;;;34.65;16.56;98512.63;6922961;28;20223;-80
2022/08/13 14:08:32;;;;;;;2.77;1.60;;;;;;;34.95;15.99;98508.88;6920798;28;20294;-80
2022/08/13 14:11:55;;;;;;;1.83;1.50;;;;;;;33.38;17.02;98519.22;6921266;28;20211;-80
2022/08/13 14:15:18;;;;;;;4.13;1.40;;;;;;;34.29;16.48;98494.28;6938970;28;20246;-80
2022/08/13 14:18:40;;;;;;;2.23;1.40;;;;;;;33.93;16.93;98497.47;6947047;28;20211;-80
2022/08/13 14:22:06;;;;;;;1.87;1.77;;;;;;;34.54;17.00;98503.22;6946156;28;20226;-79
2022/08/13 14:25:30;;;;;;;1.67;1.57;;;;;;;34.56;16.65;98507.28;6947634;28;20227;-80
2022/08/13 14:28:52;;;;;;;2.10;1.40;;;;;;;34.64;16.89;98502.59;6946028;28;20567;-79
2022/08/13 14:32:13;;;;;;;1.33;1.23;;;;;;;33.75;17.62;98476.63;6946775;28;20235;-79
2022/08/13 14:35:35;;;;;;;2.10;1.50;;;;;;;34.38;17.32;98494.88;6946990;28;20242;-79
2022/08/13 14:38:58;;;;;;;1.80;1.70;;;;;;;34.38;17.49;98494.06;6945819;28;20292;-80
2022/08/13 14:42:26;;;;;;;1.80;1.43;;;;;;;33.53;18.31;98477.28;6946450;28;20714;-79
2022/08/13 14:45:51;;;;;;;1.70;1.60;;;;;;;34.35;17.48;98492.81;6940159;28;20290;-79
2022/08/13 14:49:12;;;;;;;2.97;1.50;;;;;;;34.06;17.77;98479.34;6945964;28;20333;-78
2022/08/13 14:52:34;;;;;;;3.97;1.50;;;;;;;34.32;17.31;98487.16;6946684;28;20707;-79
2022/08/13 14:56:00;;;;;;;2.13;1.30;;;;;;;34.02;17.44;98467.25;6946903;28;20691;-79
2022/08/13 14:59:22;;;;;;;1.73;1.40;;;;;;;34.75;16.94;98484.06;6951516;28;20210;-79
2022/08/13 15:02:43;;;;;;;2.57;1.67;;;;;;;34.72;16.76;98465.16;6951203;28;20314;-78
2022/08/13 15:06:06;;;;;;;1.93;1.63;;;;;;;34.26;16.79;98441.81;6936732;28;20735;-78
2022/08/13 15:09:27;;;;;;;1.60;1.50;;;;;;;34.78;17.09;98458.91;6930274;28;20199;-78
2022/08/13 15:12:51;;;;;;;1.87;1.40;;;;;;;34.88;16.93;98457.47;6950336;28;20231;-78
2022/08/13 15:16:13;;;;;;;1.60;1.50;;;;;;;34.52;17.25;98443.94;6949850;28;20730;-78
2022/08/13 15:19:36;;;;;;;1.60;1.50;;;;;;;34.00;17.86;98452.84;6949550;28;20210;-78
2022/08/13 15:22:59;;;;;;;2.27;2.10;;;;;;;34.43;16.91;98443.38;6949646;28;20242;-78
2022/08/13 15:26:20;;;;;;;3.13;1.40;;;;;;;34.91;16.57;98457.53;6951769;28;20243;-80
2022/08/13 15:29:44;;;;;;;2.90;1.70;;;;;;;35.18;16.75;98453.63;6949838;28;20671;-78
2022/08/13 15:33:07;;;;;;;1.60;1.43;;;;;;;35.46;16.55;98439.31;6949511;28;20320;-77
2022/08/13 15:36:29;;;;;;;4.07;2.60;;;;;;;35.07;16.72;98438.63;6949929;28;20293;-77
2022/08/13 15:39:50;;;;;;;1.70;1.60;;;;;;;34.93;16.55;98420.75;6928842;28;20223;-78
2022/08/13 15:43:14;;;;;;;2.00;1.60;;;;;;;35.10;16.89;98437.06;6922719;28;20719;-78
2022/08/13 15:46:36;;;;;;;1.90;1.80;;;;;;;34.68;17.08;98416.66;6922527;28;20302;-77
2022/08/13 15:49:58;;;;;;;1.67;1.57;;;;;;;34.00;17.99;98427.66;6922032;28;20342;-78
2022/08/13 15:53:19;;;;;;;1.73;1.40;;;;;;;34.41;17.77;98412.94;6923179;28;20236;-80
2022/08/13 15:56:41;;;;;;;1.80;1.70;;;;;;;33.30;18.22;98428.78;6922603;28;20211;-78
2022/08/13 16:00:04;;;;;;;2.90;1.97;;;;;;;32.91;18.36;98412.97;6921819;28;20311;-79
2022/08/13 16:03:30;;;;;;;3.70;1.87;;;;;;;33.85;17.80;98394.16;6948616;28;20230;-78
2022/08/13 16:06:52;;;;;;;4.33;1.83;;;;;;;34.40;17.30;98399.31;6944582;28;20212;-79
2022/08/13 16:10:14;;;;;;;3.37;1.90;;;;;;;34.72;16.75;98403.53;6920437;28;20600;-79
2022/08/13 16:13:36;;;;;;;2.37;2.00;;;;;;;34.09;17.48;98400.28;6921956;28;20322;-79